sensor_id;sensor_type;location;lat;lon;timestamp;P1;durP1;ratioP1;P2;durP2;ratioP2
49946;SDS011;35839;48.662;13.300;2023-07-13T04:34:19;7.93;;;4.68;;
49946;SDS011;35839;48.662;13.300;2023-07-13T04:36:44;11.38;;;4.53;;
49946;SDS011;35839;48.662;13.300;2023-07-13T04:39:09;7.28;;;4.43;;
49946;SDS011;35839;48.662;13.300;2023-07-13T04:41:35;7.82;;;4.38;;
49946;SDS011;35839;48.662;13.300;2023-07-13T04:44:00;6.55;;;4.65;;
49946;SDS011;35839;48.662;13.300;2023-07-13T04:46:25;7.57;;;5.03;;
49946;SDS011;35839;48.662;13.300;2023-07-13T04:48:51;9.65;;;4.55;;
49946;SDS011;35839;48.662;13.300;2023-07-13T04:51:18;7.60;;;4.50;;
49946;SDS011;35839;48.662;13.300;2023-07-13T04:53:43;6.75;;;4.53;;
49946;SDS011;35839;48.662;13.300;2023-07-13T04:56:08;10.00;;;4.47;;
49946;SDS011;35839;48.662;13.300;2023-07-13T04:58:34;9.90;;;5.10;;
49946;SDS011;35839;48.662;13.300;2023-07-13T05:01:00;7.57;;;4.40;;
49946;SDS011;35839;48.662;13.300;2023-07-13T05:03:27;8.73;;;5.10;;
49946;SDS011;35839;48.662;13.300;2023-07-13T05:05:56;8.18;;;4.68;;
49946;SDS011;35839;48.662;13.300;2023-07-13T05:08:26;6.03;;;4.30;;
49946;SDS011;35839;48.662;13.300;2023-07-13T05:10:52;11.75;;;4.57;;
49946;SDS011;35839;48.662;13.300;2023-07-13T05:13:18;11.13;;;4.90;;
49946;SDS011;35839;48.662;13.300;2023-07-13T05:15:44;8.10;;;4.30;;
49946;SDS011;35839;48.662;13.300;2023-07-13T05:18:09;8.43;;;5.10;;
49946;SDS011;35839;48.662;13.300;2023-07-13T05:20:34;10.00;;;5.20;;
49946;SDS011;35839;48.662;13.300;2023-07-13T05:23:00;11.52;;;5.38;;
49946;SDS011;35839;48.662;13.300;2023-07-13T05:25:25;12.18;;;5.38;;
49946;SDS011;35839;48.662;13.300;2023-07-13T05:27:50;9.55;;;5.90;;
49946;SDS011;35839;48.662;13.300;2023-07-13T05:30:16;7.28;;;5.32;;
49946;SDS011;35839;48.662;13.300;2023-07-13T05:32:41;9.20;;;5.47;;
49946;SDS011;35839;48.662;13.300;2023-07-13T05:35:06;8.95;;;5.18;;
49946;SDS011;35839;48.662;13.300;2023-07-13T05:37:32;11.15;;;5.55;;
49946;SDS011;35839;48.662;13.300;2023-07-13T05:39:57;8.75;;;5.43;;
49946;SDS011;35839;48.662;13.300;2023-07-13T05:42:22;8.35;;;5.93;;
49946;SDS011;35839;48.662;13.300;2023-07-13T05:44:48;17.02;;;7.03;;
49946;SDS011;35839;48.662;13.300;2023-07-13T05:47:13;10.60;;;5.75;;
49946;SDS011;35839;48.662;13.300;2023-07-13T05:49:39;7.75;;;5.55;;
49946;SDS011;35839;48.662;13.300;2023-07-13T05:52:05;10.13;;;5.65;;
49946;SDS011;35839;48.662;13.300;2023-07-13T05:54:30;7.93;;;5.65;;
49946;SDS011;35839;48.662;13.300;2023-07-13T05:56:56;15.23;;;6.10;;
49946;SDS011;35839;48.662;13.300;2023-07-13T05:59:21;6.82;;;5.93;;
49946;SDS011;35839;48.662;13.300;2023-07-13T06:01:46;14.52;;;5.93;;
49946;SDS011;35839;48.662;13.300;2023-07-13T06:04:12;6.45;;;5.40;;
49946;SDS011;35839;48.662;13.300;2023-07-13T06:06:37;7.82;;;6.30;;
49946;SDS011;35839;48.662;13.300;2023-07-13T06:09:02;8.52;;;5.90;;
49946;SDS011;35839;48.662;13.300;2023-07-13T06:11:28;8.55;;;6.10;;
49946;SDS011;35839;48.662;13.300;2023-07-13T06:13:55;10.73;;;6.25;;
49946;SDS011;35839;48.662;13.300;2023-07-13T06:16:21;14.60;;;9.00;;
49946;SDS011;35839;48.662;13.300;2023-07-13T06:18:46;8.88;;;6.68;;
49946;SDS011;35839;48.662;13.300;2023-07-13T06:21:13;7.88;;;6.20;;
49946;SDS011;35839;48.662;13.300;2023-07-13T06:23:43;11.23;;;6.40;;
49946;SDS011;35839;48.662;13.300;2023-07-13T06:26:10;11.88;;;6.68;;
49946;SDS011;35839;48.662;13.300;2023-07-13T06:28:36;15.73;;;7.88;;
49946;SDS011;35839;48.662;13.300;2023-07-13T06:31:04;11.18;;;6.38;;
49946;SDS011;35839;48.662;13.300;2023-07-13T06:33:30;8.48;;;5.82;;
49946;SDS011;35839;48.662;13.300;2023-07-13T06:35:55;7.07;;;6.32;;
49946;SDS011;35839;48.662;13.300;2023-07-13T06:38:21;11.68;;;6.55;;
49946;SDS011;35839;48.662;13.300;2023-07-13T06:40:46;9.88;;;6.57;;
49946;SDS011;35839;48.662;13.300;2023-07-13T06:43:11;9.50;;;6.53;;
49946;SDS011;35839;48.662;13.300;2023-07-13T06:45:41;16.05;;;7.78;;
49946;SDS011;35839;48.662;13.300;2023-07-13T06:48:10;13.90;;;7.13;;
49946;SDS011;35839;48.662;13.300;2023-07-13T06:50:36;13.48;;;7.32;;
49946;SDS011;35839;48.662;13.300;2023-07-13T06:53:01;14.48;;;8.20;;
49946;SDS011;35839;48.662;13.300;2023-07-13T06:55:26;12.23;;;9.63;;
49946;SDS011;35839;48.662;13.300;2023-07-13T06:57:52;14.75;;;8.10;;
49946;SDS011;35839;48.662;13.300;2023-07-13T07:00:17;13.23;;;5.85;;
49946;SDS011;35839;48.662;13.300;2023-07-13T07:02:43;13.23;;;7.07;;
49946;SDS011;35839;48.662;13.300;2023-07-13T07:05:08;10.25;;;6.57;;
49946;SDS011;35839;48.662;13.300;2023-07-13T07:07:33;16.13;;;6.13;;
49946;SDS011;35839;48.662;13.300;2023-07-13T07:09:59;11.00;;;5.75;;
49946;SDS011;35839;48.662;13.300;2023-07-13T07:12:24;9.25;;;5.53;;
49946;SDS011;35839;48.662;13.300;2023-07-13T07:14:49;14.88;;;6.40;;
49946;SDS011;35839;48.662;13.300;2023-07-13T07:17:15;10.45;;;5.30;;
49946;SDS011;35839;48.662;13.300;2023-07-13T07:19:40;11.93;;;4.97;;
49946;SDS011;35839;48.662;13.300;2023-07-13T07:22:06;14.00;;;5.30;;
49946;SDS011;35839;48.662;13.300;2023-07-13T07:24:31;11.63;;;5.00;;
49946;SDS011;35839;48.662;13.300;2023-07-13T07:26:57;10.38;;;4.72;;
49946;SDS011;35839;48.662;13.300;2023-07-13T07:29:22;7.57;;;4.70;;
49946;SDS011;35839;48.662;13.300;2023-07-13T07:31:47;14.63;;;4.85;;
49946;SDS011;35839;48.662;13.300;2023-07-13T07:34:13;8.88;;;4.75;;
49946;SDS011;35839;48.662;13.300;2023-07-13T07:36:38;6.85;;;4.65;;
49946;SDS011;35839;48.662;13.300;2023-07-13T07:39:03;8.10;;;4.90;;
49946;SDS011;35839;48.662;13.300;2023-07-13T07:41:29;12.80;;;4.85;;
49946;SDS011;35839;48.662;13.300;2023-07-13T07:43:55;7.10;;;4.30;;
49946;SDS011;35839;48.662;13.300;2023-07-13T07:46:20;7.22;;;5.07;;
49946;SDS011;35839;48.662;13.300;2023-07-13T07:48:45;10.52;;;4.75;;
49946;SDS011;35839;48.662;13.300;2023-07-13T07:51:11;6.00;;;4.57;;
49946;SDS011;35839;48.662;13.300;2023-07-13T07:53:36;12.18;;;5.13;;
49946;SDS011;35839;48.662;13.300;2023-07-13T07:56:01;11.23;;;5.88;;
49946;SDS011;35839;48.662;13.300;2023-07-13T07:58:26;10.98;;;4.72;;
49946;SDS011;35839;48.662;13.300;2023-07-13T08:00:52;9.40;;;5.50;;
49946;SDS011;35839;48.662;13.300;2023-07-13T08:03:17;8.05;;;4.78;;
49946;SDS011;35839;48.662;13.300;2023-07-13T08:05:42;8.95;;;4.47;;
49946;SDS011;35839;48.662;13.300;2023-07-13T08:08:07;12.88;;;4.30;;
49946;SDS011;35839;48.662;13.300;2023-07-13T08:10:34;14.30;;;4.63;;
49946;SDS011;35839;48.662;13.300;2023-07-13T08:13:02;11.95;;;4.07;;
49946;SDS011;35839;48.662;13.300;2023-07-13T08:15:27;12.43;;;4.28;;
49946;SDS011;35839;48.662;13.300;2023-07-13T08:17:53;16.75;;;4.53;;
49946;SDS011;35839;48.662;13.300;2023-07-13T08:20:18;8.25;;;3.92;;
49946;SDS011;35839;48.662;13.300;2023-07-13T08:22:43;7.53;;;3.65;;
49946;SDS011;35839;48.662;13.300;2023-07-13T08:25:08;5.70;;;3.33;;
49946;SDS011;35839;48.662;13.300;2023-07-13T08:27:34;12.10;;;3.70;;
49946;SDS011;35839;48.662;13.300;2023-07-13T08:29:59;5.40;;;3.95;;
49946;SDS011;35839;48.662;13.300;2023-07-13T08:32:24;8.23;;;3.70;;
49946;SDS011;35839;48.662;13.300;2023-07-13T08:34:50;6.38;;;2.95;;
49946;SDS011;35839;48.662;13.300;2023-07-13T08:37:16;4.30;;;2.92;;
49946;SDS011;35839;48.662;13.300;2023-07-13T08:39:42;4.90;;;2.28;;
49946;SDS011;35839;48.662;13.300;2023-07-13T08:42:14;7.05;;;3.28;;
49946;SDS011;35839;48.662;13.300;2023-07-13T08:47:22;9.05;;;2.90;;
49946;SDS011;35839;48.662;13.300;2023-07-13T08:49:49;8.27;;;3.03;;
49946;SDS011;35839;48.662;13.300;2023-07-13T08:55:05;8.65;;;3.22;;
49946;SDS011;35839;48.662;13.300;2023-07-13T08:57:37;3.63;;;2.65;;
49946;SDS011;35839;48.662;13.300;2023-07-13T09:00:09;4.00;;;2.70;;
49946;SDS011;35839;48.662;13.300;2023-07-13T09:02:42;10.55;;;4.18;;
49946;SDS011;35839;48.662;13.300;2023-07-13T09:05:17;8.55;;;3.42;;
49946;SDS011;35839;48.662;13.300;2023-07-13T09:10:44;9.43;;;3.05;;
49946;SDS011;35839;48.662;13.300;2023-07-13T09:13:28;5.60;;;3.10;;
49946;SDS011;35839;48.662;13.300;2023-07-13T09:16:04;5.80;;;2.75;;
49946;SDS011;35839;48.662;13.300;2023-07-13T09:18:34;7.00;;;2.72;;
49946;SDS011;35839;48.662;13.300;2023-07-13T09:21:03;6.60;;;2.63;;
49946;SDS011;35839;48.662;13.300;2023-07-13T09:23:33;7.75;;;2.88;;
49946;SDS011;35839;48.662;13.300;2023-07-13T09:28:29;5.50;;;2.50;;
49946;SDS011;35839;48.662;13.300;2023-07-13T09:31:06;4.85;;;3.22;;
49946;SDS011;35839;48.662;13.300;2023-07-13T09:33:37;5.88;;;2.90;;
49946;SDS011;35839;48.662;13.300;2023-07-13T09:36:11;4.35;;;2.67;;
49946;SDS011;35839;48.662;13.300;2023-07-13T09:38:41;6.25;;;2.70;;
49946;SDS011;35839;48.662;13.300;2023-07-13T09:41:20;3.50;;;2.33;;
49946;SDS011;35839;48.662;13.300;2023-07-13T09:44:53;4.22;;;2.60;;
49946;SDS011;35839;48.662;13.300;2023-07-13T09:47:03;4.13;;;2.35;;
49946;SDS011;35839;48.662;13.300;2023-07-13T09:49:29;4.93;;;2.80;;
49946;SDS011;35839;48.662;13.300;2023-07-13T09:54:29;3.83;;;1.73;;
49946;SDS011;35839;48.662;13.300;2023-07-13T09:59:26;6.18;;;2.22;;
49946;SDS011;35839;48.662;13.300;2023-07-13T10:01:54;2.95;;;2.20;;
49946;SDS011;35839;48.662;13.300;2023-07-13T10:04:33;2.35;;;2.05;;
49946;SDS011;35839;48.662;13.300;2023-07-13T10:07:11;5.43;;;2.00;;
49946;SDS011;35839;48.662;13.300;2023-07-13T10:09:38;3.60;;;2.13;;
49946;SDS011;35839;48.662;13.300;2023-07-13T10:12:04;3.00;;;2.70;;
49946;SDS011;35839;48.662;13.300;2023-07-13T10:14:38;5.40;;;2.50;;
49946;SDS011;35839;48.662;13.300;2023-07-13T10:17:08;4.55;;;1.85;;
49946;SDS011;35839;48.662;13.300;2023-07-13T10:19:38;4.43;;;1.95;;
49946;SDS011;35839;48.662;13.300;2023-07-13T10:22:14;7.25;;;2.50;;
49946;SDS011;35839;48.662;13.300;2023-07-13T10:25:01;3.53;;;1.73;;
49946;SDS011;35839;48.662;13.300;2023-07-13T10:27:32;2.72;;;1.65;;
49946;SDS011;35839;48.662;13.300;2023-07-13T10:30:17;2.90;;;1.55;;
49946;SDS011;35839;48.662;13.300;2023-07-13T10:32:47;5.00;;;1.85;;
49946;SDS011;35839;48.662;13.300;2023-07-13T10:35:15;5.45;;;1.45;;
49946;SDS011;35839;48.662;13.300;2023-07-13T10:37:49;4.28;;;1.42;;
49946;SDS011;35839;48.662;13.300;2023-07-13T10:40:24;5.97;;;1.58;;
49946;SDS011;35839;48.662;13.300;2023-07-13T10:42:57;2.22;;;1.17;;
49946;SDS011;35839;48.662;13.300;2023-07-13T10:45:25;3.72;;;1.75;;
49946;SDS011;35839;48.662;13.300;2023-07-13T10:47:54;2.67;;;1.35;;
49946;SDS011;35839;48.662;13.300;2023-07-13T10:50:24;2.45;;;1.73;;
49946;SDS011;35839;48.662;13.300;2023-07-13T10:52:53;2.05;;;1.70;;
49946;SDS011;35839;48.662;13.300;2023-07-13T10:55:54;2.75;;;1.55;;
49946;SDS011;35839;48.662;13.300;2023-07-13T10:58:29;2.35;;;1.67;;
49946;SDS011;35839;48.662;13.300;2023-07-13T11:01:03;1.92;;;1.30;;
49946;SDS011;35839;48.662;13.300;2023-07-13T11:04:16;3.42;;;1.52;;
49946;SDS011;35839;48.662;13.300;2023-07-13T11:08:53;3.17;;;1.40;;
49946;SDS011;35839;48.662;13.300;2023-07-13T11:18:46;2.42;;;1.38;;
49946;SDS011;35839;48.662;13.300;2023-07-13T11:21:15;4.85;;;1.70;;
49946;SDS011;35839;48.662;13.300;2023-07-13T11:23:47;4.60;;;1.48;;
49946;SDS011;35839;48.662;13.300;2023-07-13T11:31:53;1.98;;;1.05;;
49946;SDS011;35839;48.662;13.300;2023-07-13T11:34:25;4.22;;;1.50;;
49946;SDS011;35839;48.662;13.300;2023-07-13T11:36:58;3.97;;;1.77;;
49946;SDS011;35839;48.662;13.300;2023-07-13T11:39:31;4.60;;;1.58;;
49946;SDS011;35839;48.662;13.300;2023-07-13T11:42:00;3.88;;;1.70;;
49946;SDS011;35839;48.662;13.300;2023-07-13T11:44:29;4.20;;;1.67;;
49946;SDS011;35839;48.662;13.300;2023-07-13T11:46:56;2.78;;;1.23;;
49946;SDS011;35839;48.662;13.300;2023-07-13T11:49:30;7.38;;;1.70;;
49946;SDS011;35839;48.662;13.300;2023-07-13T11:51:57;3.85;;;1.50;;
49946;SDS011;35839;48.662;13.300;2023-07-13T11:54:34;3.72;;;1.33;;
49946;SDS011;35839;48.662;13.300;2023-07-13T11:57:24;2.83;;;1.80;;
49946;SDS011;35839;48.662;13.300;2023-07-13T11:59:56;5.80;;;2.22;;
49946;SDS011;35839;48.662;13.300;2023-07-13T12:02:25;9.68;;;1.95;;
49946;SDS011;35839;48.662;13.300;2023-07-13T12:04:54;4.18;;;1.23;;
49946;SDS011;35839;48.662;13.300;2023-07-13T12:07:20;5.57;;;1.80;;
49946;SDS011;35839;48.662;13.300;2023-07-13T12:09:45;3.05;;;1.58;;
49946;SDS011;35839;48.662;13.300;2023-07-13T12:14:38;4.20;;;1.60;;
49946;SDS011;35839;48.662;13.300;2023-07-13T12:17:07;3.60;;;1.63;;
49946;SDS011;35839;48.662;13.300;2023-07-13T12:19:37;5.13;;;1.75;;
49946;SDS011;35839;48.662;13.300;2023-07-13T12:22:03;3.28;;;1.60;;
49946;SDS011;35839;48.662;13.300;2023-07-13T12:24:28;4.80;;;2.13;;
49946;SDS011;35839;48.662;13.300;2023-07-13T12:26:58;3.05;;;1.67;;
49946;SDS011;35839;48.662;13.300;2023-07-13T12:29:25;2.97;;;2.03;;
49946;SDS011;35839;48.662;13.300;2023-07-13T12:31:51;5.50;;;1.77;;
49946;SDS011;35839;48.662;13.300;2023-07-13T12:34:21;4.68;;;1.70;;
49946;SDS011;35839;48.662;13.300;2023-07-13T12:36:55;3.78;;;1.65;;
49946;SDS011;35839;48.662;13.300;2023-07-13T12:39:33;3.95;;;1.77;;
49946;SDS011;35839;48.662;13.300;2023-07-13T12:45:01;4.53;;;1.50;;
49946;SDS011;35839;48.662;13.300;2023-07-13T12:47:43;5.65;;;2.47;;
49946;SDS011;35839;48.662;13.300;2023-07-13T12:50:12;6.80;;;1.92;;
49946;SDS011;35839;48.662;13.300;2023-07-13T12:52:43;3.28;;;1.88;;
49946;SDS011;35839;48.662;13.300;2023-07-13T12:55:16;2.72;;;1.90;;
49946;SDS011;35839;48.662;13.300;2023-07-13T12:57:50;3.15;;;1.90;;
49946;SDS011;35839;48.662;13.300;2023-07-13T13:03:03;5.07;;;2.08;;
49946;SDS011;35839;48.662;13.300;2023-07-13T13:05:32;2.28;;;1.55;;
49946;SDS011;35839;48.662;13.300;2023-07-13T13:07:58;3.15;;;2.05;;
49946;SDS011;35839;48.662;13.300;2023-07-13T13:10:24;11.50;;;2.97;;
49946;SDS011;35839;48.662;13.300;2023-07-13T13:12:51;4.35;;;1.70;;
49946;SDS011;35839;48.662;13.300;2023-07-13T13:15:17;5.97;;;1.85;;
49946;SDS011;35839;48.662;13.300;2023-07-13T13:17:43;4.25;;;2.28;;
49946;SDS011;35839;48.662;13.300;2023-07-13T13:20:18;3.10;;;2.00;;
49946;SDS011;35839;48.662;13.300;2023-07-13T13:22:45;4.60;;;1.90;;
49946;SDS011;35839;48.662;13.300;2023-07-13T13:25:11;2.92;;;2.05;;
49946;SDS011;35839;48.662;13.300;2023-07-13T13:27:37;7.78;;;1.98;;
49946;SDS011;35839;48.662;13.300;2023-07-13T13:32:35;2.20;;;1.83;;
49946;SDS011;35839;48.662;13.300;2023-07-13T13:35:00;8.00;;;2.08;;
49946;SDS011;35839;48.662;13.300;2023-07-13T13:37:26;3.47;;;1.67;;
49946;SDS011;35839;48.662;13.300;2023-07-13T13:39:51;4.47;;;2.30;;
49946;SDS011;35839;48.662;13.300;2023-07-13T13:42:18;5.18;;;1.70;;
49946;SDS011;35839;48.662;13.300;2023-07-13T13:44:46;11.05;;;1.77;;
49946;SDS011;35839;48.662;13.300;2023-07-13T13:47:20;6.88;;;2.20;;
49946;SDS011;35839;48.662;13.300;2023-07-13T13:49:51;3.95;;;1.98;;
49946;SDS011;35839;48.662;13.300;2023-07-13T13:52:16;7.00;;;1.88;;
49946;SDS011;35839;48.662;13.300;2023-07-13T13:54:43;2.92;;;1.90;;
49946;SDS011;35839;48.662;13.300;2023-07-13T13:57:08;5.20;;;2.00;;
49946;SDS011;35839;48.662;13.300;2023-07-13T13:59:33;3.08;;;1.90;;
49946;SDS011;35839;48.662;13.300;2023-07-13T14:02:07;3.85;;;2.38;;
49946;SDS011;35839;48.662;13.300;2023-07-13T14:04:47;6.72;;;2.20;;
49946;SDS011;35839;48.662;13.300;2023-07-13T14:07:13;4.82;;;2.15;;
49946;SDS011;35839;48.662;13.300;2023-07-13T14:09:38;3.40;;;2.00;;
49946;SDS011;35839;48.662;13.300;2023-07-13T14:12:03;5.20;;;2.08;;
49946;SDS011;35839;48.662;13.300;2023-07-13T14:14:30;3.42;;;1.73;;
49946;SDS011;35839;48.662;13.300;2023-07-13T14:16:57;5.05;;;1.98;;
49946;SDS011;35839;48.662;13.300;2023-07-13T14:19:22;6.43;;;2.20;;
49946;SDS011;35839;48.662;13.300;2023-07-13T14:21:48;3.15;;;1.58;;
49946;SDS011;35839;48.662;13.300;2023-07-13T14:24:14;4.82;;;1.70;;
49946;SDS011;35839;48.662;13.300;2023-07-13T14:26:40;6.57;;;2.10;;
49946;SDS011;35839;48.662;13.300;2023-07-13T14:29:16;4.28;;;2.22;;
49946;SDS011;35839;48.662;13.300;2023-07-13T14:31:43;3.53;;;2.05;;
49946;SDS011;35839;48.662;13.300;2023-07-13T14:34:10;4.13;;;1.77;;
49946;SDS011;35839;48.662;13.300;2023-07-13T14:36:43;5.05;;;2.05;;
49946;SDS011;35839;48.662;13.300;2023-07-13T14:39:11;5.07;;;1.70;;
49946;SDS011;35839;48.662;13.300;2023-07-13T14:41:39;2.45;;;1.55;;
49946;SDS011;35839;48.662;13.300;2023-07-13T14:44:11;3.70;;;1.70;;
49946;SDS011;35839;48.662;13.300;2023-07-13T14:46:37;7.82;;;1.45;;
49946;SDS011;35839;48.662;13.300;2023-07-13T14:49:04;2.28;;;1.42;;
49946;SDS011;35839;48.662;13.300;2023-07-13T14:51:37;3.05;;;1.65;;
49946;SDS011;35839;48.662;13.300;2023-07-13T14:54:03;5.85;;;1.80;;
49946;SDS011;35839;48.662;13.300;2023-07-13T14:56:30;6.90;;;1.58;;
49946;SDS011;35839;48.662;13.300;2023-07-13T14:58:56;3.53;;;1.50;;
49946;SDS011;35839;48.662;13.300;2023-07-13T15:01:21;2.13;;;1.38;;
49946;SDS011;35839;48.662;13.300;2023-07-13T15:03:48;3.53;;;1.58;;
49946;SDS011;35839;48.662;13.300;2023-07-13T15:06:16;2.53;;;1.60;;
49946;SDS011;35839;48.662;13.300;2023-07-13T15:08:42;1.73;;;1.38;;
49946;SDS011;35839;48.662;13.300;2023-07-13T15:11:08;3.83;;;1.33;;
49946;SDS011;35839;48.662;13.300;2023-07-13T15:13:36;4.38;;;1.90;;
49946;SDS011;35839;48.662;13.300;2023-07-13T15:16:03;2.85;;;1.77;;
49946;SDS011;35839;48.662;13.300;2023-07-13T15:18:29;2.28;;;1.60;;
49946;SDS011;35839;48.662;13.300;2023-07-13T15:20:55;2.13;;;1.40;;
49946;SDS011;35839;48.662;13.300;2023-07-13T15:23:22;2.90;;;1.58;;
49946;SDS011;35839;48.662;13.300;2023-07-13T15:25:51;3.00;;;1.65;;
49946;SDS011;35839;48.662;13.300;2023-07-13T15:28:17;5.38;;;1.58;;
49946;SDS011;35839;48.662;13.300;2023-07-13T15:30:46;6.22;;;1.60;;
49946;SDS011;35839;48.662;13.300;2023-07-13T15:33:15;4.03;;;1.63;;
49946;SDS011;35839;48.662;13.300;2023-07-13T15:35:42;2.20;;;1.20;;
49946;SDS011;35839;48.662;13.300;2023-07-13T15:38:16;1.75;;;1.38;;
49946;SDS011;35839;48.662;13.300;2023-07-13T15:40:44;4.28;;;1.90;;
49946;SDS011;35839;48.662;13.300;2023-07-13T15:43:13;2.67;;;1.55;;
49946;SDS011;35839;48.662;13.300;2023-07-13T15:45:40;9.80;;;2.10;;
49946;SDS011;35839;48.662;13.300;2023-07-13T15:48:18;2.42;;;1.20;;
49946;SDS011;35839;48.662;13.300;2023-07-13T15:50:47;6.90;;;1.92;;
49946;SDS011;35839;48.662;13.300;2023-07-13T15:53:21;3.60;;;1.80;;
49946;SDS011;35839;48.662;13.300;2023-07-13T15:55:49;5.53;;;1.83;;
49946;SDS011;35839;48.662;13.300;2023-07-13T15:58:15;5.15;;;1.70;;
49946;SDS011;35839;48.662;13.300;2023-07-13T16:00:41;3.58;;;1.40;;
49946;SDS011;35839;48.662;13.300;2023-07-13T16:03:07;3.10;;;1.40;;
49946;SDS011;35839;48.662;13.300;2023-07-13T16:05:32;2.33;;;1.25;;
49946;SDS011;35839;48.662;13.300;2023-07-13T16:07:58;3.22;;;1.70;;
49946;SDS011;35839;48.662;13.300;2023-07-13T16:10:29;1.80;;;1.23;;
49946;SDS011;35839;48.662;13.300;2023-07-13T16:13:08;3.97;;;1.33;;
49946;SDS011;35839;48.662;13.300;2023-07-13T16:15:39;5.45;;;1.55;;
49946;SDS011;35839;48.662;13.300;2023-07-13T16:18:09;2.25;;;1.52;;
49946;SDS011;35839;48.662;13.300;2023-07-13T16:20:34;1.67;;;1.35;;
49946;SDS011;35839;48.662;13.300;2023-07-13T16:23:00;3.35;;;1.67;;
49946;SDS011;35839;48.662;13.300;2023-07-13T16:25:28;3.63;;;1.77;;
49946;SDS011;35839;48.662;13.300;2023-07-13T16:27:55;4.65;;;1.63;;
49946;SDS011;35839;48.662;13.300;2023-07-13T16:30:26;1.83;;;1.52;;
49946;SDS011;35839;48.662;13.300;2023-07-13T16:32:54;3.25;;;1.42;;
49946;SDS011;35839;48.662;13.300;2023-07-13T16:35:29;6.28;;;1.45;;
49946;SDS011;35839;48.662;13.300;2023-07-13T16:38:00;5.40;;;1.50;;
49946;SDS011;35839;48.662;13.300;2023-07-13T16:40:30;1.95;;;1.40;;
49946;SDS011;35839;48.662;13.300;2023-07-13T16:42:57;5.25;;;1.80;;
49946;SDS011;35839;48.662;13.300;2023-07-13T16:45:24;4.70;;;1.52;;
49946;SDS011;35839;48.662;13.300;2023-07-13T16:47:55;2.63;;;2.03;;
49946;SDS011;35839;48.662;13.300;2023-07-13T16:50:22;4.15;;;2.05;;
49946;SDS011;35839;48.662;13.300;2023-07-13T16:52:49;3.90;;;1.50;;
49946;SDS011;35839;48.662;13.300;2023-07-13T16:55:17;6.38;;;1.70;;
49946;SDS011;35839;48.662;13.300;2023-07-13T16:57:47;1.67;;;1.35;;
49946;SDS011;35839;48.662;13.300;2023-07-13T17:00:20;2.47;;;1.50;;
49946;SDS011;35839;48.662;13.300;2023-07-13T17:02:52;2.08;;;1.27;;
49946;SDS011;35839;48.662;13.300;2023-07-13T17:05:23;3.85;;;2.08;;
49946;SDS011;35839;48.662;13.300;2023-07-13T17:07:49;7.47;;;2.65;;
49946;SDS011;35839;48.662;13.300;2023-07-13T17:10:16;4.40;;;1.92;;
49946;SDS011;35839;48.662;13.300;2023-07-13T17:12:44;3.90;;;1.25;;
49946;SDS011;35839;48.662;13.300;2023-07-13T17:15:11;3.20;;;1.70;;
49946;SDS011;35839;48.662;13.300;2023-07-13T17:17:38;5.43;;;1.90;;
49946;SDS011;35839;48.662;13.300;2023-07-13T17:20:23;3.55;;;1.63;;
49946;SDS011;35839;48.662;13.300;2023-07-13T17:22:53;5.13;;;1.48;;
49946;SDS011;35839;48.662;13.300;2023-07-13T17:25:19;2.03;;;1.30;;
49946;SDS011;35839;48.662;13.300;2023-07-13T17:27:46;3.90;;;1.40;;
49946;SDS011;35839;48.662;13.300;2023-07-13T17:30:19;4.90;;;1.45;;
49946;SDS011;35839;48.662;13.300;2023-07-13T17:32:45;2.50;;;1.20;;
49946;SDS011;35839;48.662;13.300;2023-07-13T17:35:17;5.88;;;1.80;;
49946;SDS011;35839;48.662;13.300;2023-07-13T17:37:48;4.70;;;1.42;;
49946;SDS011;35839;48.662;13.300;2023-07-13T17:40:14;4.82;;;1.60;;
49946;SDS011;35839;48.662;13.300;2023-07-13T17:42:42;1.92;;;1.58;;
49946;SDS011;35839;48.662;13.300;2023-07-13T17:47:36;2.30;;;1.20;;
49946;SDS011;35839;48.662;13.300;2023-07-13T17:50:04;6.00;;;1.85;;
49946;SDS011;35839;48.662;13.300;2023-07-13T17:52:37;1.65;;;1.45;;
49946;SDS011;35839;48.662;13.300;2023-07-13T17:55:11;4.70;;;1.40;;
49946;SDS011;35839;48.662;13.300;2023-07-13T17:57:38;3.05;;;1.83;;
49946;SDS011;35839;48.662;13.300;2023-07-13T18:00:05;1.63;;;1.05;;
49946;SDS011;35839;48.662;13.300;2023-07-13T18:02:51;1.83;;;1.23;;
49946;SDS011;35839;48.662;13.300;2023-07-13T18:05:16;1.98;;;1.30;;
49946;SDS011;35839;48.662;13.300;2023-07-13T18:07:42;2.50;;;1.40;;
49946;SDS011;35839;48.662;13.300;2023-07-13T18:10:13;4.70;;;1.48;;
49946;SDS011;35839;48.662;13.300;2023-07-13T18:12:39;3.42;;;1.63;;
49946;SDS011;35839;48.662;13.300;2023-07-13T18:15:05;2.95;;;1.50;;
49946;SDS011;35839;48.662;13.300;2023-07-13T18:17:31;1.52;;;1.00;;
49946;SDS011;35839;48.662;13.300;2023-07-13T18:19:56;2.67;;;1.52;;
49946;SDS011;35839;48.662;13.300;2023-07-13T18:22:21;3.50;;;1.25;;
49946;SDS011;35839;48.662;13.300;2023-07-13T18:24:47;4.78;;;1.42;;
49946;SDS011;35839;48.662;13.300;2023-07-13T18:27:12;3.88;;;1.30;;
49946;SDS011;35839;48.662;13.300;2023-07-13T18:29:38;2.70;;;1.25;;
49946;SDS011;35839;48.662;13.300;2023-07-13T18:32:04;2.33;;;1.27;;
49946;SDS011;35839;48.662;13.300;2023-07-13T18:34:32;3.38;;;1.65;;
49946;SDS011;35839;48.662;13.300;2023-07-13T18:37:02;4.57;;;1.70;;
49946;SDS011;35839;48.662;13.300;2023-07-13T18:39:28;4.72;;;2.00;;
49946;SDS011;35839;48.662;13.300;2023-07-13T18:41:53;3.95;;;1.60;;
49946;SDS011;35839;48.662;13.300;2023-07-13T18:44:18;8.02;;;1.70;;
49946;SDS011;35839;48.662;13.300;2023-07-13T18:46:44;5.38;;;1.75;;
49946;SDS011;35839;48.662;13.300;2023-07-13T18:49:10;3.95;;;1.20;;
49946;SDS011;35839;48.662;13.300;2023-07-13T18:51:38;4.40;;;1.10;;
49946;SDS011;35839;48.662;13.300;2023-07-13T18:54:05;4.65;;;2.00;;
49946;SDS011;35839;48.662;13.300;2023-07-13T18:56:36;2.28;;;1.40;;
49946;SDS011;35839;48.662;13.300;2023-07-13T18:59:01;5.80;;;1.70;;
49946;SDS011;35839;48.662;13.300;2023-07-13T19:01:31;2.88;;;1.13;;
49946;SDS011;35839;48.662;13.300;2023-07-13T19:04:00;1.77;;;0.95;;
49946;SDS011;35839;48.662;13.300;2023-07-13T19:06:31;4.47;;;1.27;;
49946;SDS011;35839;48.662;13.300;2023-07-13T19:08:56;3.08;;;1.73;;
49946;SDS011;35839;48.662;13.300;2023-07-13T19:11:22;3.15;;;1.70;;
49946;SDS011;35839;48.662;13.300;2023-07-13T19:13:50;3.47;;;1.63;;
49946;SDS011;35839;48.662;13.300;2023-07-13T19:16:16;3.88;;;2.03;;
49946;SDS011;35839;48.662;13.300;2023-07-13T19:18:41;5.85;;;1.98;;
49946;SDS011;35839;48.662;13.300;2023-07-13T19:24:18;3.88;;;1.52;;
49946;SDS011;35839;48.662;13.300;2023-07-13T19:26:46;3.72;;;1.00;;
49946;SDS011;35839;48.662;13.300;2023-07-13T19:29:16;3.63;;;1.63;;
49946;SDS011;35839;48.662;13.300;2023-07-13T19:31:43;4.30;;;1.65;;
49946;SDS011;35839;48.662;13.300;2023-07-13T19:36:35;6.45;;;2.15;;
49946;SDS011;35839;48.662;13.300;2023-07-13T19:39:03;4.25;;;1.60;;
49946;SDS011;35839;48.662;13.300;2023-07-13T19:41:30;6.30;;;2.00;;
49946;SDS011;35839;48.662;13.300;2023-07-13T19:44:00;6.22;;;1.88;;
49946;SDS011;35839;48.662;13.300;2023-07-13T19:46:28;6.93;;;1.60;;
49946;SDS011;35839;48.662;13.300;2023-07-13T19:48:58;4.10;;;1.50;;
49946;SDS011;35839;48.662;13.300;2023-07-13T19:53:55;4.43;;;1.83;;
49946;SDS011;35839;48.662;13.300;2023-07-13T19:56:26;5.50;;;1.60;;
49946;SDS011;35839;48.662;13.300;2023-07-13T19:58:52;1.73;;;1.42;;
49946;SDS011;35839;48.662;13.300;2023-07-13T20:01:18;2.47;;;1.52;;
49946;SDS011;35839;48.662;13.300;2023-07-13T20:03:43;2.67;;;1.40;;
49946;SDS011;35839;48.662;13.300;2023-07-13T20:06:26;3.00;;;1.33;;